createdAt,value
2022-12-20T00:03:33.370Z,20.85
2022-12-20T00:06:00.183Z,20.83
2022-12-20T00:08:26.925Z,21.70
2022-12-20T00:10:53.658Z,22.20
2022-12-20T00:13:20.454Z,22.27
2022-12-20T00:15:47.151Z,22.70
2022-12-20T00:18:14.233Z,21.27
2022-12-20T00:20:41.080Z,22.65
2022-12-20T00:23:07.896Z,23.00
2022-12-20T00:25:34.695Z,22.98
2022-12-20T00:28:03.315Z,22.98
2022-12-20T00:30:30.240Z,21.27
2022-12-20T00:32:57.004Z,22.48
2022-12-20T00:35:23.789Z,22.63
2022-12-20T00:37:50.598Z,21.58
2022-12-20T00:40:17.425Z,21.23
2022-12-20T00:42:44.145Z,22.30
2022-12-20T00:45:11.184Z,22.33
2022-12-20T00:47:37.965Z,21.85
2022-12-20T00:50:05.438Z,22.73
2022-12-20T00:52:32.186Z,23.83
2022-12-20T00:54:58.936Z,22.30
2022-12-20T00:57:25.796Z,22.85
2022-12-20T00:59:52.524Z,22.92
2022-12-20T01:02:19.495Z,23.33
2022-12-20T01:04:46.476Z,22.45
2022-12-20T01:07:13.200Z,22.13
2022-12-20T01:09:39.955Z,22.27
2022-12-20T01:12:06.929Z,23.48
2022-12-20T01:14:33.958Z,22.40
2022-12-20T01:17:00.820Z,22.73
2022-12-20T01:19:27.772Z,23.30
2022-12-20T01:21:54.514Z,23.02
2022-12-20T01:24:21.578Z,23.10
2022-12-20T01:26:48.822Z,24.05
2022-12-20T01:29:16.107Z,23.48
2022-12-20T01:31:43.767Z,22.88
2022-12-20T01:34:11.821Z,23.40
2022-12-20T01:36:38.941Z,22.77
2022-12-20T01:39:11.407Z,22.30
2022-12-20T01:41:38.990Z,23.60
2022-12-20T01:44:17.649Z,23.77
2022-12-20T01:46:46.285Z,22.77
2022-12-20T01:49:39.729Z,23.25
2022-12-20T01:52:17.844Z,23.15
2022-12-20T01:54:50.230Z,22.08
2022-12-20T01:57:22.761Z,22.63
2022-12-20T01:59:52.602Z,23.02
2022-12-20T02:02:19.411Z,23.63
2022-12-20T02:04:46.314Z,22.27
2022-12-20T02:07:20.483Z,22.80
2022-12-20T02:09:49.009Z,22.58
2022-12-20T02:12:23.232Z,23.70
2022-12-20T02:15:08.446Z,22.73
2022-12-20T02:17:57.903Z,23.40
2022-12-20T02:20:36.975Z,23.90
2022-12-20T02:23:28.103Z,22.33
2022-12-20T02:26:00.956Z,23.15
2022-12-20T02:28:49.740Z,21.55
2022-12-20T02:31:21.805Z,21.67
2022-12-20T02:33:50.362Z,23.73
2022-12-20T02:36:18.347Z,23.48
2022-12-20T02:38:45.482Z,22.17
2022-12-20T02:41:18.452Z,21.88
2022-12-20T02:44:09.097Z,23.90
2022-12-20T02:46:37.186Z,21.45
2022-12-20T02:49:11.510Z,22.88
2022-12-20T02:51:40.066Z,23.17
2022-12-20T02:54:07.029Z,23.55
2022-12-20T02:56:41.912Z,22.08
2022-12-20T02:59:15.374Z,22.30
2022-12-20T03:01:48.198Z,23.65
2022-12-20T03:04:16.711Z,23.17
2022-12-20T03:07:04.852Z,23.48
2022-12-20T03:09:34.252Z,22.60
2022-12-20T03:12:01.515Z,22.58
2022-12-20T03:14:28.632Z,23.83
2022-12-20T03:16:55.559Z,22.40
2022-12-20T03:19:22.893Z,22.85
2022-12-20T03:21:49.665Z,23.38
2022-12-20T03:24:17.132Z,22.83
2022-12-20T03:26:44.063Z,22.15
2022-12-20T03:29:11.002Z,21.48
2022-12-20T03:31:37.799Z,22.92
2022-12-20T03:34:05.205Z,23.58
2022-12-20T03:36:32.041Z,22.73
2022-12-20T03:38:59.393Z,23.35
2022-12-20T03:41:26.599Z,21.30
2022-12-20T03:43:53.362Z,22.80
2022-12-20T03:46:20.224Z,21.73
2022-12-20T03:48:47.027Z,21.10
2022-12-20T03:51:13.819Z,21.73
2022-12-20T03:53:40.550Z,21.55
2022-12-20T03:56:07.404Z,22.73
2022-12-20T03:58:34.126Z,21.10
2022-12-20T04:01:00.882Z,21.25
2022-12-20T04:03:27.768Z,20.85
2022-12-20T04:05:54.545Z,21.38
2022-12-20T04:08:21.306Z,19.85
2022-12-20T04:11:06.938Z,22.52
2022-12-20T04:13:33.798Z,20.33
2022-12-20T04:16:01.379Z,19.20
2022-12-20T04:18:28.364Z,21.98
2022-12-20T04:20:55.445Z,20.73
2022-12-20T04:23:22.277Z,19.83
2022-12-20T04:25:48.990Z,21.00
2022-12-20T04:28:15.757Z,19.52
2022-12-20T04:30:42.555Z,19.30
2022-12-20T04:33:09.386Z,20.42
2022-12-20T04:35:37.732Z,22.33
2022-12-20T04:38:04.998Z,21.35
2022-12-20T04:40:31.774Z,20.75
2022-12-20T04:42:58.518Z,20.27
2022-12-20T04:45:25.511Z,21.63
2022-12-20T04:47:52.387Z,21.90
2022-12-20T04:50:19.420Z,21.95
2022-12-20T04:53:04.837Z,20.98
2022-12-20T04:55:32.179Z,21.13
2022-12-20T04:58:03.752Z,22.17
2022-12-20T05:00:35.010Z,20.73
2022-12-20T05:03:02.440Z,21.10
2022-12-20T05:05:29.320Z,23.08
2022-12-20T05:07:56.775Z,21.17
2022-12-20T05:10:24.083Z,21.08
2022-12-20T05:12:50.929Z,19.38
2022-12-20T05:15:17.926Z,21.38
2022-12-20T05:17:44.718Z,20.85
2022-12-20T05:20:12.076Z,21.42
2022-12-20T05:22:57.444Z,21.02
2022-12-20T05:25:42.924Z,21.88
2022-12-20T05:28:09.773Z,19.52
2022-12-20T05:30:37.075Z,20.80
2022-12-20T05:33:04.183Z,20.95
2022-12-20T05:35:31.007Z,20.90
2022-12-20T05:37:57.900Z,20.40
2022-12-20T05:40:24.688Z,20.38
2022-12-20T05:42:51.479Z,21.67
2022-12-20T05:45:18.186Z,20.35
2022-12-20T05:47:45.597Z,21.63
2022-12-20T05:50:18.501Z,20.27
2022-12-20T05:52:46.265Z,21.05
2022-12-20T05:55:13.894Z,23.83
2022-12-20T05:57:40.664Z,20.35
2022-12-20T06:00:08.324Z,21.40
2022-12-20T06:02:35.430Z,22.33
2022-12-20T06:05:02.988Z,22.88
2022-12-20T06:07:29.880Z,21.05
2022-12-20T06:09:56.789Z,20.55
2022-12-20T06:12:23.698Z,20.63
2022-12-20T06:14:51.491Z,22.25
2022-12-20T06:17:20.185Z,21.48
2022-12-20T06:19:47.071Z,21.55
2022-12-20T06:22:13.864Z,20.23
2022-12-20T06:24:47.609Z,21.20
2022-12-20T06:27:15.284Z,20.02
2022-12-20T06:29:42.007Z,19.77
2022-12-20T06:32:08.884Z,21.88
2022-12-20T06:34:35.755Z,20.40
2022-12-20T06:39:39.227Z,22.13
2022-12-20T06:42:05.988Z,21.67
2022-12-20T06:44:32.908Z,22.55
2022-12-20T06:46:59.642Z,20.90
2022-12-20T06:49:26.369Z,22.40
2022-12-20T06:51:53.178Z,21.88
2022-12-20T06:54:19.964Z,22.45
2022-12-20T06:56:46.788Z,21.73
2022-12-20T06:59:13.843Z,23.05
2022-12-20T07:01:40.654Z,22.45
2022-12-20T07:04:07.499Z,22.25
2022-12-20T07:06:34.592Z,23.05
2022-12-20T07:09:01.371Z,22.15
2022-12-20T07:11:28.138Z,21.63
2022-12-20T07:13:58.732Z,20.60
2022-12-20T07:16:26.063Z,22.55
2022-12-20T07:18:53.878Z,21.25
2022-12-20T07:21:21.394Z,21.38
2022-12-20T07:23:48.246Z,20.48
2022-12-20T07:26:15.638Z,22.27
2022-12-20T07:28:43.057Z,22.55
2022-12-20T07:31:09.850Z,21.67
2022-12-20T07:33:37.467Z,21.92
2022-12-20T07:36:10.286Z,22.38
2022-12-20T07:38:37.408Z,21.65
2022-12-20T07:41:11.818Z,21.10
2022-12-20T07:43:38.595Z,21.80
2022-12-20T07:46:07.582Z,21.13
2022-12-20T07:48:36.264Z,21.33
2022-12-20T07:51:10.032Z,22.92
2022-12-20T07:53:45.813Z,22.38
2022-12-20T07:56:14.057Z,21.77
2022-12-20T07:58:43.410Z,21.67
2022-12-20T08:01:11.511Z,22.70
2022-12-20T08:03:49.930Z,21.25
2022-12-20T08:06:18.895Z,21.05
2022-12-20T08:08:53.776Z,21.27
2022-12-20T08:11:22.688Z,21.45
2022-12-20T08:13:57.536Z,20.88
2022-12-20T08:16:25.116Z,19.92
2022-12-20T08:18:52.104Z,21.90
2022-12-20T08:21:19.262Z,21.25
2022-12-20T08:23:46.081Z,20.25
2022-12-20T08:26:12.838Z,21.75
2022-12-20T08:28:39.687Z,20.67
2022-12-20T08:31:08.771Z,20.40
2022-12-20T08:33:36.918Z,21.20
2022-12-20T08:36:07.094Z,21.95
2022-12-20T08:38:34.508Z,21.52
2022-12-20T08:41:13.793Z,20.80
2022-12-20T08:43:41.495Z,20.50
2022-12-20T08:46:12.623Z,22.35
2022-12-20T08:48:40.140Z,21.20
2022-12-20T08:51:09.253Z,20.52
2022-12-20T08:53:36.947Z,20.83
2022-12-20T08:56:15.407Z,20.65
2022-12-20T08:58:43.876Z,22.13
2022-12-20T09:01:13.614Z,18.98
2022-12-20T09:03:41.138Z,19.83
2022-12-20T09:06:16.629Z,22.00
2022-12-20T09:08:43.781Z,21.15
2022-12-20T09:11:16.026Z,19.73
2022-12-20T09:13:44.907Z,19.67
2022-12-20T09:16:14.630Z,20.05
2022-12-20T09:18:42.142Z,19.70
2022-12-20T09:21:10.214Z,20.88
2022-12-20T09:23:38.484Z,21.92
2022-12-20T09:26:11.177Z,19.90
2022-12-20T09:28:38.024Z,20.63
2022-12-20T09:31:08.061Z,20.50
2022-12-20T09:33:35.609Z,21.95
2022-12-20T09:36:03.672Z,21.92
2022-12-20T09:38:32.318Z,20.83
2022-12-20T09:41:03.009Z,21.13
2022-12-20T09:43:30.559Z,21.25
2022-12-20T09:45:59.993Z,23.08
2022-12-20T09:48:33.359Z,21.08
2022-12-20T09:51:29.167Z,20.20
2022-12-20T09:54:20.651Z,22.60
2022-12-20T09:57:03.363Z,20.38
2022-12-20T09:59:34.179Z,20.58
2022-12-20T10:02:43.917Z,20.38
2022-12-20T10:04:58.525Z,21.23
2022-12-20T10:07:39.167Z,20.05
2022-12-20T10:10:11.561Z,20.50
2022-12-20T10:13:05.174Z,20.50
2022-12-20T10:15:46.636Z,20.13
2022-12-20T10:18:32.860Z,19.23
2022-12-20T10:21:25.737Z,21.27
2022-12-20T10:24:02.570Z,19.58
2022-12-20T10:26:30.353Z,21.38
2022-12-20T10:28:57.133Z,21.48
2022-12-20T10:31:24.076Z,18.77
2022-12-20T10:33:51.255Z,20.13
2022-12-20T10:36:19.200Z,21.35
2022-12-20T10:38:50.774Z,18.63
2022-12-20T10:41:23.971Z,19.92
2022-12-20T10:44:00.132Z,20.77
2022-12-20T10:46:45.691Z,20.30
2022-12-20T10:49:23.542Z,20.35
2022-12-20T10:51:55.646Z,19.70
2022-12-20T10:54:28.733Z,19.58
2022-12-20T10:57:02.222Z,21.27
2022-12-20T10:59:34.754Z,19.92
2022-12-20T11:02:03.513Z,21.27
2022-12-20T11:04:34.850Z,22.92
2022-12-20T11:07:24.283Z,22.02
2022-12-20T11:09:56.678Z,21.45
2022-12-20T11:12:23.714Z,22.25
2022-12-20T11:14:50.633Z,22.50
2022-12-20T11:17:27.657Z,23.20
2022-12-20T11:20:13.736Z,22.10
2022-12-20T11:22:51.736Z,19.98
2022-12-20T11:25:44.667Z,21.60
2022-12-20T11:28:11.384Z,20.20
2022-12-20T11:31:01.256Z,21.35
2022-12-20T11:33:47.359Z,22.30
2022-12-20T11:36:45.767Z,21.10
2022-12-20T11:39:37.183Z,20.08
2022-12-20T11:42:17.157Z,21.30
2022-12-20T11:44:53.919Z,22.52
2022-12-20T11:48:05.749Z,22.40
2022-12-20T11:51:01.869Z,21.33
2022-12-20T11:53:36.345Z,21.10
2022-12-20T11:56:11.307Z,22.17
2022-12-20T11:58:56.313Z,22.92
2022-12-20T12:01:37.683Z,22.40
2022-12-20T12:04:14.831Z,21.48
2022-12-20T12:06:46.227Z,21.00
2022-12-20T12:09:46.512Z,21.23
2022-12-20T12:15:00.888Z,21.98
2022-12-20T12:17:57.187Z,21.25
2022-12-20T12:20:38.336Z,20.92
2022-12-20T12:23:16.633Z,22.25
2022-12-20T12:25:43.435Z,22.25
2022-12-20T12:28:14.511Z,22.65
2022-12-20T12:30:46.240Z,24.02
2022-12-20T12:33:37.673Z,25.00
2022-12-20T12:36:29.696Z,24.67
2022-12-20T12:39:01.853Z,22.85
2022-12-20T12:42:04.914Z,22.85
2022-12-20T12:44:34.947Z,22.65
2022-12-20T12:47:08.313Z,22.98
2022-12-20T12:49:35.298Z,23.70
2022-12-20T12:52:05.440Z,25.25
2022-12-20T12:57:19.791Z,23.98
2022-12-20T12:59:49.003Z,24.63
2022-12-20T13:02:16.399Z,23.37
2022-12-20T13:05:02.090Z,22.08
2022-12-20T13:07:49.107Z,23.58
2022-12-20T13:10:15.926Z,24.73
2022-12-20T13:12:42.610Z,26.00
2022-12-20T13:15:21.452Z,24.65
2022-12-20T13:18:24.714Z,25.17
2022-12-20T13:21:39.529Z,23.63
2022-12-20T13:24:34.042Z,24.48
2022-12-20T13:27:02.407Z,23.77
2022-12-20T13:29:57.649Z,24.27
2022-12-20T13:32:53.265Z,23.20
2022-12-20T13:35:25.920Z,23.40
2022-12-20T13:38:00.755Z,22.48
2022-12-20T13:40:54.925Z,21.85
2022-12-20T13:43:24.294Z,23.63
2022-12-20T13:45:55.283Z,22.17
2022-12-20T13:48:28.837Z,23.60
2022-12-20T13:50:56.924Z,22.13
2022-12-20T13:53:27.357Z,24.63
2022-12-20T13:55:55.737Z,23.02
2022-12-20T13:58:27.032Z,22.90
2022-12-20T14:01:03.591Z,24.88
2022-12-20T14:03:31.774Z,23.55
2022-12-20T14:06:04.634Z,21.77
2022-12-20T14:08:37.600Z,24.70
2022-12-20T14:11:13.738Z,24.42
2022-12-20T14:13:41.377Z,23.42
2022-12-20T14:16:16.642Z,25.40
2022-12-20T14:18:51.583Z,24.23
2022-12-20T14:21:19.244Z,24.42
2022-12-20T14:23:50.802Z,23.52
2022-12-20T14:26:23.186Z,25.05
2022-12-20T14:28:52.987Z,27.20
2022-12-20T14:31:26.838Z,24.42
2022-12-20T14:34:24.456Z,24.80
2022-12-20T14:37:33.977Z,24.05
2022-12-20T14:40:09.964Z,23.80
2022-12-20T14:42:40.008Z,23.60
2022-12-20T14:45:09.491Z,23.48
2022-12-20T14:47:37.705Z,23.17
2022-12-20T14:50:17.490Z,23.98
2022-12-20T14:52:44.627Z,22.90
2022-12-20T14:55:25.188Z,23.60
2022-12-20T14:57:56.837Z,23.95
2022-12-20T15:00:30.773Z,23.67
2022-12-20T15:03:01.078Z,25.00
2022-12-20T15:05:43.166Z,24.52
2022-12-20T15:08:33.195Z,22.83
2022-12-20T15:11:23.117Z,22.83
2022-12-20T15:13:53.426Z,23.05
2022-12-20T15:16:29.438Z,22.98
2022-12-20T15:18:56.270Z,22.73
2022-12-20T15:21:33.432Z,23.80
2022-12-20T15:24:02.470Z,23.23
2022-12-20T15:26:31.183Z,22.88
2022-12-20T15:28:58.093Z,23.80
2022-12-20T15:31:32.871Z,22.33
2022-12-20T15:34:02.554Z,23.83
2022-12-20T15:36:30.331Z,23.50
2022-12-20T15:39:15.037Z,23.10
2022-12-20T15:41:47.441Z,21.85
2022-12-20T15:44:23.691Z,23.63
2022-12-20T15:46:51.390Z,23.05
2022-12-20T15:49:30.521Z,24.08
2022-12-20T15:51:58.041Z,22.05
2022-12-20T15:54:27.785Z,22.70
2022-12-20T15:56:56.287Z,22.98
2022-12-20T16:02:28.153Z,22.80
2022-12-20T16:04:55.607Z,22.95
2022-12-20T16:07:23.091Z,23.67
2022-12-20T16:09:49.989Z,23.10
2022-12-20T16:12:21.463Z,21.52
2022-12-20T16:14:48.358Z,21.10
2022-12-20T16:17:16.161Z,22.92
2022-12-20T16:19:43.705Z,22.25
2022-12-20T16:22:18.680Z,24.15
2022-12-20T16:24:46.368Z,22.13
2022-12-20T16:27:13.289Z,20.95
2022-12-20T16:29:41.633Z,23.08
2022-12-20T16:32:20.391Z,21.90
2022-12-20T16:34:49.323Z,22.27
2022-12-20T16:37:16.399Z,22.10
2022-12-20T16:39:43.249Z,22.83
2022-12-20T16:42:18.191Z,21.80
2022-12-20T16:44:46.256Z,21.33
2022-12-20T16:47:14.173Z,22.77
2022-12-20T16:49:44.625Z,21.20
2022-12-20T16:52:18.683Z,21.35
2022-12-20T16:54:45.524Z,21.65
2022-12-20T16:57:12.328Z,22.60
2022-12-20T16:59:39.036Z,22.33
2022-12-20T17:02:21.315Z,22.30
2022-12-20T17:04:48.120Z,22.55
2022-12-20T17:07:16.407Z,20.83
2022-12-20T17:09:43.239Z,21.58
2022-12-20T17:12:18.225Z,20.80
2022-12-20T17:14:45.129Z,19.80
2022-12-20T17:17:31.209Z,22.08
2022-12-20T17:20:11.148Z,19.50
2022-12-20T17:22:38.050Z,21.30
2022-12-20T17:25:05.189Z,20.45
2022-12-20T17:27:32.078Z,20.13
2022-12-20T17:29:58.876Z,21.48
2022-12-20T17:32:26.244Z,20.98
2022-12-20T17:34:53.166Z,21.15
2022-12-20T17:37:21.166Z,21.05
2022-12-20T17:39:48.281Z,22.02
2022-12-20T17:42:15.692Z,22.75
2022-12-20T17:44:43.077Z,21.15
2022-12-20T17:47:09.906Z,22.10
2022-12-20T17:49:36.671Z,20.55
2022-12-20T17:52:04.311Z,20.83
2022-12-20T17:54:38.941Z,21.08
2022-12-20T17:57:13.150Z,20.55
2022-12-20T17:59:40.938Z,21.40
2022-12-20T18:02:21.092Z,21.15
2022-12-20T18:04:48.356Z,20.65
2022-12-20T18:07:15.181Z,21.20
2022-12-20T18:09:42.012Z,21.73
2022-12-20T18:12:10.683Z,21.10
2022-12-20T18:14:37.461Z,20.98
2022-12-20T18:17:04.387Z,19.95
2022-12-20T18:19:32.022Z,20.40
2022-12-20T18:22:00.249Z,20.63
2022-12-20T18:24:27.649Z,20.02
2022-12-20T18:26:54.445Z,21.45
2022-12-20T18:29:21.784Z,21.40
2022-12-20T18:31:48.811Z,21.65
2022-12-20T18:34:15.651Z,20.10
2022-12-20T18:36:43.530Z,20.60
2022-12-20T18:39:13.365Z,21.00
2022-12-20T18:41:43.257Z,20.40
2022-12-20T18:44:11.481Z,20.45
2022-12-20T18:46:38.589Z,20.30
2022-12-20T18:49:05.841Z,21.30
2022-12-20T18:51:38.892Z,20.50
2022-12-20T18:54:08.674Z,20.98
2022-12-20T18:56:38.031Z,20.92
2022-12-20T18:59:14.201Z,21.98
2022-12-20T19:01:43.594Z,21.27
2022-12-20T19:04:11.966Z,20.92
2022-12-20T19:06:39.293Z,20.63
2022-12-20T19:09:09.878Z,22.42
2022-12-20T19:11:37.010Z,21.40
2022-12-20T19:14:04.320Z,21.50
2022-12-20T19:16:40.015Z,21.75
2022-12-20T19:19:08.748Z,20.92
2022-12-20T19:21:37.990Z,20.45
2022-12-20T19:24:07.161Z,21.47
2022-12-20T19:26:36.949Z,22.53
2022-12-20T19:29:05.329Z,21.27
2022-12-20T19:31:36.664Z,22.50
2022-12-20T19:34:07.187Z,21.90
2022-12-20T19:36:43.465Z,22.02
2022-12-20T19:39:17.063Z,21.67
2022-12-20T19:41:54.922Z,19.63
2022-12-20T19:44:27.025Z,22.42
2022-12-20T19:46:53.932Z,20.60
2022-12-20T19:49:21.467Z,19.35
2022-12-20T19:51:50.543Z,20.52
2022-12-20T19:54:17.640Z,19.42
2022-12-20T19:56:44.407Z,19.10
2022-12-20T19:59:14.064Z,20.77
2022-12-20T20:01:41.420Z,15.63
2022-12-20T20:04:10.238Z,19.05
2022-12-20T20:06:37.079Z,19.27
2022-12-20T20:09:04.399Z,20.55
2022-12-20T20:11:31.321Z,20.08
2022-12-20T20:13:58.454Z,19.13
2022-12-20T20:16:25.670Z,19.10
2022-12-20T20:18:54.124Z,19.70
2022-12-20T20:21:22.885Z,18.70
2022-12-20T20:23:51.477Z,19.63
2022-12-20T20:26:21.379Z,18.67
2022-12-20T20:28:48.540Z,18.52
2022-12-20T20:31:17.346Z,18.40
2022-12-20T20:33:45.069Z,18.70
2022-12-20T20:36:17.770Z,18.95
2022-12-20T20:38:45.817Z,18.10
2022-12-20T20:41:13.016Z,19.42
2022-12-20T20:43:40.579Z,19.50
2022-12-20T20:46:11.663Z,16.98
2022-12-20T20:48:39.939Z,18.50
2022-12-20T20:51:07.411Z,18.95
2022-12-20T20:53:35.005Z,19.70
2022-12-20T20:56:03.360Z,20.60
2022-12-20T20:58:30.635Z,17.75
2022-12-20T21:00:59.609Z,18.33
2022-12-20T21:03:27.525Z,20.17
2022-12-20T21:08:41.712Z,17.92
2022-12-20T21:11:09.287Z,19.65
2022-12-20T21:13:36.879Z,19.83
2022-12-20T21:16:12.841Z,18.77
2022-12-20T21:18:39.959Z,18.83
2022-12-20T21:21:11.733Z,19.52
2022-12-20T21:23:39.899Z,19.38
2022-12-20T21:26:07.825Z,19.65
2022-12-20T21:28:35.859Z,19.95
2022-12-20T21:31:05.247Z,19.30
2022-12-20T21:33:32.387Z,16.40
2022-12-20T21:36:01.439Z,19.08
2022-12-20T21:38:28.412Z,19.85
2022-12-20T21:41:08.121Z,19.77
2022-12-20T21:43:35.298Z,19.02
2022-12-20T21:46:02.107Z,19.27
2022-12-20T21:48:29.794Z,18.83
2022-12-20T21:50:59.908Z,20.20
2022-12-20T21:53:26.736Z,18.55
2022-12-20T21:55:57.662Z,19.35
2022-12-20T21:58:25.435Z,20.63
2022-12-20T22:00:55.122Z,19.73
2022-12-20T22:03:23.999Z,18.60
2022-12-20T22:05:53.483Z,18.42
2022-12-20T22:08:21.614Z,19.63
2022-12-20T22:10:50.075Z,19.00
2022-12-20T22:13:16.908Z,18.40
2022-12-20T22:15:43.714Z,18.98
2022-12-20T22:18:10.510Z,19.50
2022-12-20T22:20:37.309Z,18.95
2022-12-20T22:23:04.868Z,18.95
2022-12-20T22:25:31.841Z,18.05
2022-12-20T22:27:58.674Z,17.42
2022-12-20T22:30:25.397Z,18.40
2022-12-20T22:32:52.125Z,17.65
2022-12-20T22:35:22.675Z,17.92
2022-12-20T22:37:50.324Z,18.75
2022-12-20T22:40:17.305Z,18.50
2022-12-20T22:42:44.159Z,20.63
2022-12-20T22:45:11.501Z,17.52
2022-12-20T22:50:24.754Z,18.98
2022-12-20T22:52:52.404Z,19.15
2022-12-20T22:55:19.158Z,17.65
2022-12-20T22:57:45.824Z,18.55
2022-12-20T23:00:13.250Z,16.58
2022-12-20T23:02:43.152Z,17.23
2022-12-20T23:05:10.028Z,17.52
2022-12-20T23:07:36.790Z,18.35
2022-12-20T23:10:03.756Z,18.90
2022-12-20T23:12:49.105Z,17.92
2022-12-20T23:15:34.491Z,18.67
2022-12-20T23:18:01.128Z,18.77
2022-12-20T23:20:46.654Z,17.77
2022-12-20T23:23:13.313Z,17.90
2022-12-20T23:25:40.052Z,17.45
2022-12-20T23:28:06.737Z,16.40
2022-12-20T23:30:33.469Z,17.55
2022-12-20T23:33:00.187Z,16.70
2022-12-20T23:35:27.051Z,18.35
2022-12-20T23:37:56.028Z,18.58
2022-12-20T23:40:22.732Z,18.27
2022-12-20T23:42:52.515Z,17.08
2022-12-20T23:45:19.201Z,17.52
2022-12-20T23:47:45.930Z,17.23
2022-12-20T23:50:12.597Z,17.73
2022-12-20T23:52:39.437Z,18.38
2022-12-20T23:55:06.654Z,17.83
2022-12-20T23:57:33.455Z,16.92
